Terminal Aerodrome Forecast
Issued by NWS

Home | Current Version | Previous Version | Text Only | Print | Product List | Glossary Off
Versions: 1 2 3 4 5 6 7 8 9 10 11 12 13 14 15 16 17 18 19

332
FTUS43 KABR 301501 AAA
TAFPIR
TAF AMD
KPIR 301501Z 3015/3112 15018G26KT P6SM BKN250
     FM302100 18017KT P6SM SHRA VCTS BKN060CB BKN090
     FM310000 32015KT P6SM VCSH BKN200
     FM310600 31010KT P6SM SCT200=

USA.gov is the U.S. government's official web portal to all federal, state and local government web resources and services.